Terminal Aerodrome Forecast
Issued by NWS

Home | Current Version | Previous Version | Text Only | Print | Product List | Glossary On
Versions: 1 2 3 4 5 6 7 8 9 10 11 12 13 14 15 16 17 18 19 20 21 22 23 24 25
000
FTUS44 KEWX 222300
TAFSSF
TAF
KSSF 222331Z 2300/2324 22008KT P6SM BKN250
     FM230700 10005KT P6SM OVC040
     FM230900 06004KT 5SM BR OVC020
     FM231300 36010KT P6SM OVC020
     FM231700 35020G30KT P6SM OVC030=

USA.gov is the U.S. government's official web portal to all federal, state and local government web resources and services.